Time;durP1;ratioP1;P1;durP2;ratioP2;P2;SDS_P1;SDS_P2;PMS_P1;PMS_P2;Temp;Humidity;BMP_temperature;BMP_pressure;BME280_temperature;BME280_humidity;BME280_pressure;Samples;Min_cycle;Max_cycle;Signal;HPM_P1;HPM_P2
2023/03/13 00:00:17;;;;;;;81.45;14.70;;;;;;;;;;5058577;28;20077;-74
2023/03/13 00:02:44;;;;;;;66.63;14.80;;;;;;;;;;5063795;28;20048;-74
2023/03/13 00:05:11;;;;;;;81.65;15.95;;;;;;;;;;5060859;28;20025;-74
2023/03/13 00:07:37;;;;;;;82.18;14.18;;;;;;;;;;5060500;28;20418;-73
2023/03/13 00:10:03;;;;;;;66.20;12.38;;;;;;;;;;5057983;28;20036;-74
2023/03/13 00:12:29;;;;;;;76.95;14.10;;;;;;;;;;5057170;28;20017;-74
2023/03/13 00:14:55;;;;;;;78.30;13.13;;;;;;;;;;5057538;28;20027;-74
2023/03/13 00:17:21;;;;;;;88.10;13.68;;;;;;;;;;5056566;28;20393;-73
2023/03/13 00:19:47;;;;;;;74.70;12.88;;;;;;;;;;5055584;28;20029;-72
2023/03/13 00:22:13;;;;;;;62.17;12.75;;;;;;;;;;5054692;28;20025;-74
2023/03/13 00:24:39;;;;;;;77.43;12.85;;;;;;;;;;5054683;28;20032;-73
2023/03/13 00:27:05;;;;;;;64.60;12.02;;;;;;;;;;5054612;28;20482;-75
2023/03/13 00:29:32;;;;;;;51.13;11.95;;;;;;;;;;5054552;28;20021;-72
2023/03/13 00:31:58;;;;;;;53.17;11.52;;;;;;;;;;5054287;28;20040;-73
2023/03/13 00:34:27;;;;;;;66.90;11.95;;;;;;;;;;5054473;28;20154;-72
2023/03/13 00:36:54;;;;;;;64.25;11.05;;;;;;;;;;5054169;28;20029;-73
2023/03/13 00:39:21;;;;;;;65.95;10.75;;;;;;;;;;5054401;28;20155;-72
2023/03/13 00:41:47;;;;;;;65.72;11.43;;;;;;;;;;5054206;28;20416;-72
2023/03/13 00:44:13;;;;;;;73.63;13.18;;;;;;;;;;5054225;28;20025;-73
2023/03/13 00:46:39;;;;;;;71.18;12.90;;;;;;;;;;5054345;28;20033;-73
2023/03/13 00:49:06;;;;;;;68.22;11.43;;;;;;;;;;5054412;28;20049;-74
2023/03/13 00:51:32;;;;;;;88.05;13.02;;;;;;;;;;5055424;28;20029;-73
2023/03/13 00:53:59;;;;;;;76.47;11.80;;;;;;;;;;5055277;28;20031;-75
2023/03/13 00:56:26;;;;;;;74.75;11.95;;;;;;;;;;5055066;28;20017;-74
2023/03/13 00:58:52;;;;;;;92.25;13.38;;;;;;;;;;5062010;28;20036;-73
2023/03/13 01:01:19;;;;;;;65.00;12.85;;;;;;;;;;5054985;28;20040;-74
2023/03/13 01:03:46;;;;;;;80.68;11.52;;;;;;;;;;5057583;28;20024;-72
2023/03/13 01:06:14;;;;;;;76.20;12.57;;;;;;;;;;5055693;28;20025;-73
2023/03/13 01:08:40;;;;;;;75.53;11.27;;;;;;;;;;5055344;28;20033;-73
2023/03/13 01:11:08;;;;;;;66.05;12.35;;;;;;;;;;5053755;28;20103;-72
2023/03/13 01:13:34;;;;;;;72.72;12.38;;;;;;;;;;5053408;28;20036;-72
2023/03/13 01:16:26;;;;;;;67.88;11.15;;;;;;;;;;5053429;28;20061;-73
2023/03/13 01:18:53;;;;;;;80.38;13.68;;;;;;;;;;5053390;28;20394;-73
2023/03/13 01:21:20;;;;;;;73.10;12.02;;;;;;;;;;5053425;28;20057;-73
2023/03/13 01:23:46;;;;;;;70.53;14.00;;;;;;;;;;5053217;28;20478;-73
2023/03/13 01:26:12;;;;;;;81.68;12.18;;;;;;;;;;5053218;28;20111;-73
2023/03/13 01:28:38;;;;;;;72.13;11.30;;;;;;;;;;5053409;28;20470;-73
2023/03/13 01:31:20;;;;;;;76.45;12.35;;;;;;;;;;5053342;28;20029;-73
2023/03/13 01:33:49;;;;;;;75.82;11.95;;;;;;;;;;5053010;28;20053;-73
2023/03/13 01:36:15;;;;;;;74.68;12.60;;;;;;;;;;5053053;28;20071;-72
2023/03/13 01:38:41;;;;;;;81.22;13.10;;;;;;;;;;5054870;28;20082;-72
2023/03/13 01:41:07;;;;;;;74.75;12.90;;;;;;;;;;5055510;28;20025;-73
2023/03/13 01:43:35;;;;;;;82.65;13.40;;;;;;;;;;5054376;28;20475;-73
2023/03/13 01:46:04;;;;;;;86.20;13.05;;;;;;;;;;5054683;28;20021;-73
2023/03/13 01:48:30;;;;;;;82.90;14.35;;;;;;;;;;5054655;28;20416;-73
2023/03/13 01:50:56;;;;;;;89.80;14.77;;;;;;;;;;5054185;28;20024;-73
2023/03/13 01:53:23;;;;;;;90.47;13.52;;;;;;;;;;5055449;28;20081;-74
2023/03/13 01:55:49;;;;;;;66.22;12.45;;;;;;;;;;5055622;28;20025;-73
2023/03/13 01:58:15;;;;;;;76.68;12.93;;;;;;;;;;5055170;28;20025;-72
2023/03/13 02:00:42;;;;;;;93.95;14.05;;;;;;;;;;5056942;28;20021;-73
2023/03/13 02:03:10;;;;;;;79.30;13.18;;;;;;;;;;5054628;28;20391;-73
2023/03/13 02:05:37;;;;;;;102.00;14.80;;;;;;;;;;5061160;28;20055;-74
2023/03/13 02:08:08;;;;;;;97.60;12.82;;;;;;;;;;5062151;28;20573;-75
2023/03/13 02:10:36;;;;;;;94.60;13.77;;;;;;;;;;5061294;28;20044;-74
2023/03/13 02:13:02;;;;;;;103.35;13.80;;;;;;;;;;5059602;28;20082;-75
2023/03/13 02:15:29;;;;;;;76.57;13.50;;;;;;;;;;5060639;28;20028;-74
2023/03/13 02:17:56;;;;;;;92.13;12.38;;;;;;;;;;5057145;28;20070;-76
2023/03/13 02:20:22;;;;;;;88.43;14.07;;;;;;;;;;5055906;28;20426;-76
2023/03/13 02:23:06;;;;;;;81.05;12.25;;;;;;;;;;5056262;28;20021;-76
2023/03/13 02:25:43;;;;;;;84.07;12.30;;;;;;;;;;5061750;28;20029;-75
2023/03/13 02:28:09;;;;;;;76.95;11.45;;;;;;;;;;5069782;28;20306;-76
2023/03/13 02:30:35;;;;;;;81.07;12.13;;;;;;;;;;5078783;28;20036;-76
2023/03/13 02:33:02;;;;;;;69.63;12.27;;;;;;;;;;5070693;28;20089;-74
2023/03/13 02:35:29;;;;;;;83.63;12.35;;;;;;;;;;5074092;28;20013;-75
2023/03/13 02:37:57;;;;;;;74.28;11.93;;;;;;;;;;5066343;28;20131;-75
2023/03/13 02:40:28;;;;;;;79.22;12.18;;;;;;;;;;5054905;28;20082;-74
2023/03/13 02:42:55;;;;;;;83.03;12.27;;;;;;;;;;5040794;28;20017;-74
2023/03/13 02:45:21;;;;;;;63.20;10.95;;;;;;;;;;5050852;28;20048;-75
2023/03/13 02:47:47;;;;;;;83.63;12.35;;;;;;;;;;5048769;28;20123;-75
2023/03/13 02:50:13;;;;;;;73.47;9.88;;;;;;;;;;5049800;28;20136;-75
2023/03/13 02:52:42;;;;;;;65.38;11.40;;;;;;;;;;5049762;28;20049;-75
2023/03/13 02:55:12;;;;;;;79.78;11.50;;;;;;;;;;5049065;28;20021;-75
2023/03/13 02:57:38;;;;;;;77.93;11.48;;;;;;;;;;5050408;28;20079;-74
2023/03/13 03:00:06;;;;;;;87.53;11.90;;;;;;;;;;5047791;28;20025;-72
2023/03/13 03:02:32;;;;;;;75.03;11.40;;;;;;;;;;5050496;28;20500;-73
2023/03/13 03:04:58;;;;;;;86.20;13.15;;;;;;;;;;5051419;28;20032;-73
2023/03/13 03:07:24;;;;;;;79.40;11.52;;;;;;;;;;5043164;28;20029;-73
2023/03/13 03:09:50;;;;;;;86.72;12.30;;;;;;;;;;5035472;28;20413;-73
2023/03/13 03:12:16;;;;;;;80.15;11.40;;;;;;;;;;5041262;28;20031;-73
2023/03/13 03:14:42;;;;;;;79.05;11.15;;;;;;;;;;5040841;28;20081;-73
2023/03/13 03:17:08;;;;;;;76.75;11.40;;;;;;;;;;5039906;28;20060;-73
2023/03/13 03:19:33;;;;;;;83.72;12.13;;;;;;;;;;5042536;28;20251;-73
2023/03/13 03:21:59;;;;;;;75.93;10.88;;;;;;;;;;5050356;28;20078;-73
2023/03/13 03:24:25;;;;;;;88.80;10.30;;;;;;;;;;5043696;28;20096;-73
2023/03/13 03:26:51;;;;;;;74.00;11.43;;;;;;;;;;5041088;28;20029;-73
2023/03/13 03:29:17;;;;;;;76.68;10.18;;;;;;;;;;5040471;28;20100;-74
2023/03/13 03:31:43;;;;;;;81.20;11.65;;;;;;;;;;5050342;28;20075;-74
2023/03/13 03:34:09;;;;;;;84.65;11.30;;;;;;;;;;5044358;28;20025;-73
2023/03/13 03:36:35;;;;;;;74.53;10.65;;;;;;;;;;5044115;28;20068;-73
2023/03/13 03:39:02;;;;;;;84.28;11.00;;;;;;;;;;5041124;28;20049;-73
2023/03/13 03:41:28;;;;;;;77.65;10.65;;;;;;;;;;5048422;28;20589;-73
2023/03/13 03:43:54;;;;;;;85.75;12.20;;;;;;;;;;5044358;28;20081;-74
2023/03/13 03:46:20;;;;;;;77.85;10.45;;;;;;;;;;5045116;28;20052;-72
2023/03/13 03:48:46;;;;;;;78.25;11.25;;;;;;;;;;5044153;28;20021;-72
2023/03/13 03:51:12;;;;;;;75.97;10.85;;;;;;;;;;5048106;28;20033;-72
2023/03/13 03:53:38;;;;;;;78.07;10.95;;;;;;;;;;5048293;28;20366;-78
2023/03/13 03:56:04;;;;;;;66.93;9.82;;;;;;;;;;5052631;28;20025;-77
2023/03/13 03:58:30;;;;;;;69.40;9.35;;;;;;;;;;5052924;28;20025;-80
2023/03/13 04:00:57;;;;;;;69.13;9.32;;;;;;;;;;5053604;28;20470;-75
2023/03/13 04:03:23;;;;;;;70.65;10.57;;;;;;;;;;5051239;28;20093;-75
2023/03/13 04:05:49;;;;;;;74.30;10.60;;;;;;;;;;5051115;28;20208;-75
2023/03/13 04:08:16;;;;;;;66.53;9.93;;;;;;;;;;5052975;28;20116;-76
2023/03/13 04:10:42;;;;;;;73.65;9.90;;;;;;;;;;5052446;28;20022;-75
2023/03/13 04:13:08;;;;;;;74.97;10.43;;;;;;;;;;5051499;28;20029;-77
2023/03/13 04:15:34;;;;;;;77.80;10.77;;;;;;;;;;5052555;28;20524;-73
2023/03/13 04:18:00;;;;;;;65.70;9.27;;;;;;;;;;5051205;28;20025;-73
2023/03/13 04:20:27;;;;;;;70.05;9.32;;;;;;;;;;5051743;28;20025;-73
2023/03/13 04:22:53;;;;;;;59.92;8.75;;;;;;;;;;5051491;28;20034;-74
2023/03/13 04:25:19;;;;;;;79.45;10.18;;;;;;;;;;5055760;28;20069;-72
2023/03/13 04:27:45;;;;;;;62.30;8.88;;;;;;;;;;5062345;28;20398;-72
2023/03/13 04:30:12;;;;;;;59.35;8.88;;;;;;;;;;5062347;28;20025;-72
2023/03/13 04:32:38;;;;;;;68.57;7.90;;;;;;;;;;5059030;28;20310;-74
2023/03/13 04:35:04;;;;;;;63.17;9.20;;;;;;;;;;5054764;28;20033;-72
2023/03/13 04:37:30;;;;;;;73.32;8.98;;;;;;;;;;5053071;28;20116;-74
2023/03/13 04:39:56;;;;;;;61.08;9.07;;;;;;;;;;5054398;28;20068;-74
2023/03/13 04:42:22;;;;;;;66.15;8.93;;;;;;;;;;5053965;28;20025;-73
2023/03/13 04:44:48;;;;;;;66.78;9.05;;;;;;;;;;5054391;28;20064;-72
2023/03/13 04:47:14;;;;;;;49.08;8.48;;;;;;;;;;5054457;28;20048;-72
2023/03/13 04:49:40;;;;;;;61.17;9.40;;;;;;;;;;5049053;28;20509;-75
2023/03/13 04:52:06;;;;;;;56.45;9.32;;;;;;;;;;5051730;28;20029;-74
2023/03/13 04:54:32;;;;;;;60.60;8.70;;;;;;;;;;5053045;28;20619;-74
2023/03/13 04:56:58;;;;;;;51.83;9.05;;;;;;;;;;5055043;28;20115;-74
2023/03/13 04:59:24;;;;;;;64.70;9.23;;;;;;;;;;5055696;28;20081;-74
2023/03/13 05:01:50;;;;;;;59.95;9.18;;;;;;;;;;5054336;28;20036;-73
2023/03/13 05:04:16;;;;;;;54.85;8.60;;;;;;;;;;5050704;28;20444;-75
2023/03/13 05:06:42;;;;;;;58.90;9.27;;;;;;;;;;5054354;28;20087;-74
2023/03/13 05:09:08;;;;;;;66.90;9.52;;;;;;;;;;5047394;28;20104;-72
2023/03/13 05:11:34;;;;;;;60.53;9.07;;;;;;;;;;5052143;28;20352;-73
2023/03/13 05:14:00;;;;;;;57.65;8.75;;;;;;;;;;5053404;28;20035;-73
2023/03/13 05:16:26;;;;;;;58.65;8.40;;;;;;;;;;5053347;28;20371;-74
2023/03/13 05:18:52;;;;;;;56.38;7.85;;;;;;;;;;5053736;28;20035;-73
2023/03/13 05:21:18;;;;;;;57.33;8.13;;;;;;;;;;5053902;28;20100;-74
2023/03/13 05:23:44;;;;;;;47.13;8.68;;;;;;;;;;5053298;28;20021;-73
2023/03/13 05:26:10;;;;;;;58.63;7.85;;;;;;;;;;5053527;28;20021;-74
2023/03/13 05:28:36;;;;;;;46.42;7.32;;;;;;;;;;5053543;28;20092;-74
2023/03/13 05:31:02;;;;;;;46.53;6.63;;;;;;;;;;5053440;28;20387;-75
2023/03/13 05:33:28;;;;;;;39.58;6.22;;;;;;;;;;5052354;28;20021;-76
2023/03/13 05:35:54;;;;;;;51.17;7.85;;;;;;;;;;5062976;28;20390;-75
2023/03/13 05:38:20;;;;;;;47.75;6.90;;;;;;;;;;5058093;28;20036;-75
2023/03/13 05:40:46;;;;;;;43.88;6.60;;;;;;;;;;5056062;28;20489;-74
2023/03/13 05:43:12;;;;;;;32.28;6.75;;;;;;;;;;5047767;28;20023;-73
2023/03/13 05:45:38;;;;;;;32.65;6.13;;;;;;;;;;5046566;28;20029;-77
2023/03/13 05:48:04;;;;;;;27.25;5.50;;;;;;;;;;5052265;28;20099;-73
2023/03/13 05:50:30;;;;;;;26.95;5.18;;;;;;;;;;5050627;28;20086;-73
2023/03/13 05:52:56;;;;;;;31.02;5.70;;;;;;;;;;5052453;28;20029;-74
2023/03/13 05:55:22;;;;;;;36.15;5.65;;;;;;;;;;5053074;28;20116;-74
2023/03/13 05:57:48;;;;;;;20.95;4.07;;;;;;;;;;5052899;28;20029;-73
2023/03/13 06:00:15;;;;;;;24.17;4.47;;;;;;;;;;5052867;28;20025;-73
2023/03/13 06:02:42;;;;;;;22.60;7.43;;;;;;;;;;5052365;28;20083;-75
2023/03/13 06:05:08;;;;;;;20.98;4.15;;;;;;;;;;5052992;28;20024;-76
2023/03/13 06:07:33;;;;;;;16.00;4.43;;;7.20;99.90;;;;;;5052757;28;20494;-75
2023/03/13 06:09:59;;;;;;;20.05;4.35;;;9.30;99.90;;;;;;5052017;28;20104;-76
2023/03/13 06:12:25;;;;;;;18.98;4.20;;;9.30;99.90;;;;;;5052765;28;20056;-73
2023/03/13 06:14:50;;;;;;;23.70;4.20;;;9.30;99.90;;;;;;5048857;28;20029;-76
2023/03/13 06:17:16;;;;;;;21.77;3.78;;;9.30;99.90;;;;;;5049086;28;20025;-75
2023/03/13 06:19:42;;;;;;;16.20;3.22;;;9.20;99.90;;;;;;5051828;28;20475;-74
2023/03/13 06:22:07;;;;;;;18.13;3.25;;;9.30;99.90;;;;;;5051794;28;20056;-74
2023/03/13 06:24:33;;;;;;;13.77;3.90;;;9.30;99.90;;;;;;5052292;28;20063;-75
2023/03/13 06:26:58;;;;;;;16.70;3.72;;;9.40;99.90;;;;;;5052313;28;20031;-76
2023/03/13 06:29:24;;;;;;;19.98;4.53;;;9.30;99.90;;;;;;5048288;28;20307;-76
2023/03/13 06:31:50;;;;;;;15.77;3.35;;;9.40;99.90;;;;;;5046793;28;20029;-74
2023/03/13 06:34:16;;;;;;;13.75;2.78;;;9.30;99.90;;;;;;5051830;28;20033;-74
2023/03/13 06:36:41;;;;;;;15.18;2.92;;;9.40;99.90;;;;;;5051743;28;20028;-76
2023/03/13 06:39:08;;;;;;;9.50;2.40;;;9.40;99.90;;;;;;5051783;28;20402;-75
2023/03/13 06:41:33;;;;;;;13.35;3.30;;;9.40;99.90;;;;;;5052469;28;20025;-75
2023/03/13 06:43:59;;;;;;;14.68;2.50;;;9.50;99.90;;;;;;5051465;28;20025;-73
2023/03/13 06:46:25;;;;;;;11.45;2.40;;;;;;;;;;5051666;28;20503;-73
2023/03/13 06:48:51;;;;;;;13.60;2.78;;;;;;;;;;5044017;28;20052;-74
2023/03/13 06:51:19;;;;;;;10.63;2.40;;;;;;;;;;5050969;28;20020;-74
2023/03/13 06:53:45;;;;;;;7.88;2.63;;;;;;;;;;5052044;28;20044;-72
2023/03/13 06:56:11;;;;;;;14.20;3.38;;;;;;;;;;5051715;28;20036;-75
2023/03/13 06:58:37;;;;;;;12.38;2.92;;;;;;;;;;5051534;28;20032;-75
2023/03/13 07:01:10;;;;;;;15.10;3.83;;;;;;;;;;5045798;28;20024;-72
2023/03/13 07:03:37;;;;;;;14.43;3.45;;;;;;;;;;5051102;28;20033;-76
2023/03/13 07:06:03;;;;;;;17.58;3.63;;;;;;;;;;5050870;28;20417;-75
2023/03/13 07:08:29;;;;;;;8.13;2.38;;;;;;;;;;5052399;28;20029;-74
2023/03/13 07:10:59;;;;;;;10.85;3.13;;;;;;;;;;5051310;28;20055;-75
2023/03/13 07:13:25;;;;;;;13.30;3.10;;;;;;;;;;5051930;28;20025;-76
2023/03/13 07:15:52;;;;;;;12.73;3.15;;;;;;;;;;5052386;28;20044;-73
2023/03/13 07:18:18;;;;;;;11.82;3.35;;;;;;;;;;5051770;28;20479;-71
2023/03/13 07:20:44;;;;;;;7.70;2.78;;;;;;;;;;5050971;28;20071;-72
2023/03/13 07:23:10;;;;;;;11.20;2.70;;;;;;;;;;5051038;28;20106;-73
2023/03/13 07:25:36;;;;;;;11.65;2.83;;;;;;;;;;5047866;28;20021;-73
2023/03/13 07:28:02;;;;;;;11.93;3.45;;;;;;;;;;5052112;28;20112;-75
2023/03/13 07:30:28;;;;;;;11.40;3.78;;;;;;;;;;5051732;28;20044;-74
2023/03/13 07:32:54;;;;;;;10.38;3.70;;;;;;;;;;5051131;28;20068;-74
2023/03/13 07:35:20;;;;;;;12.93;3.25;;;;;;;;;;5051861;28;20500;-75
2023/03/13 07:37:46;;;;;;;9.38;3.45;;;;;;;;;;5052320;28;20040;-75
2023/03/13 07:40:12;;;;;;;12.32;4.63;;;;;;;;;;5056103;28;20107;-75
2023/03/13 07:42:41;;;;;;;10.68;3.70;;;;;;;;;;5046058;28;20029;-73
2023/03/13 07:45:08;;;;;;;7.07;3.40;;;;;;;;;;5052638;28;20025;-73
2023/03/13 07:47:34;;;;;;;8.55;3.40;;;;;;;;;;5050754;28;20029;-74
2023/03/13 07:50:00;;;;;;;7.22;3.42;;;;;;;;;;5051209;28;20036;-75
2023/03/13 07:52:26;;;;;;;8.45;4.20;;;;;;;;;;5051412;28;20029;-73
2023/03/13 07:54:53;;;;;;;12.68;4.22;;;;;;;;;;5051824;28;20536;-74
2023/03/13 07:57:19;;;;;;;6.50;4.00;;;;;;;;;;5051675;28;20033;-74
2023/03/13 07:59:44;;;;;;;11.75;4.15;;;;;;;;;;5053992;28;20465;-74
2023/03/13 08:02:12;;;;;;;8.00;4.07;;;;;;;;;;5057671;28;20025;-75
2023/03/13 08:04:38;;;;;;;13.80;5.18;;;;;;;;;;5057906;28;20459;-75
2023/03/13 08:07:07;;;;;;;10.60;4.70;;;;;;;;;;5055612;28;20048;-74
2023/03/13 08:09:33;;;;;;;12.52;5.07;;;;;;;;;;5054801;28;20067;-75
2023/03/13 08:11:59;;;;;;;9.63;5.90;;;;;;;;;;5054470;28;20033;-74
2023/03/13 08:14:26;;;;;;;9.80;5.10;;;;;;;;;;5056546;28;20112;-75
2023/03/13 08:16:52;;;;;;;9.48;5.72;;;;;;;;;;5055545;28;20032;-72
2023/03/13 08:19:18;;;;;;;8.15;4.82;;;;;;;;;;5054710;28;20539;-75
2023/03/13 08:21:44;;;;;;;12.18;6.32;;;;;;;;;;5055623;28;20608;-74
2023/03/13 08:24:11;;;;;;;10.40;5.65;;;;;;;;;;5049619;28;20047;-73
2023/03/13 08:26:39;;;;;;;9.38;6.28;;;;;;;;;;5056291;28;20025;-75
2023/03/13 08:29:06;;;;;;;7.85;5.68;;;;;;;;;;5056646;28;20463;-74
2023/03/13 08:31:38;;;;;;;12.82;6.22;;;;;;;;;;5055606;28;20442;-74
2023/03/13 08:34:04;;;;;;;9.45;5.43;;;;;;;;;;5054427;28;20036;-74
2023/03/13 08:36:36;;;;;;;6.05;4.68;;;;;;;;;;5054737;28;20055;-75
2023/03/13 08:39:07;;;;;;;10.63;6.88;;;;;;;;;;5054253;28;20079;-72
2023/03/13 08:41:35;;;;;;;8.93;5.30;;;;;;;;;;5054270;28;20087;-74
2023/03/13 08:44:01;;;;;;;8.57;5.63;;;;;;;;;;5053449;28;20133;-75
2023/03/13 08:46:29;;;;;;;10.75;6.05;;;;;;;;;;5054631;28;20033;-74
2023/03/13 08:48:55;;;;;;;7.20;5.38;;;;;;;;;;5053346;28;20021;-74
2023/03/13 08:51:25;;;;;;;8.32;6.03;;;;;;;;;;5062950;28;20032;-72
2023/03/13 08:53:52;;;;;;;9.40;6.13;;;;;;;;;;5053880;28;20207;-72
2023/03/13 08:56:19;;;;;;;10.00;6.28;;;;;;;;;;5055527;28;20021;-75
2023/03/13 08:58:48;;;;;;;8.68;6.65;;;;;;;;;;5053859;28;20509;-72
2023/03/13 09:01:15;;;;;;;9.20;6.53;;;;;;;;;;5054541;28;20021;-73
2023/03/13 09:03:42;;;;;;;9.35;6.60;;;;;;;;;;5053794;28;20017;-72
2023/03/13 09:06:08;;;;;;;13.52;7.25;;;;;;;;;;5054250;28;20025;-72
2023/03/13 09:08:34;;;;;;;10.65;7.13;;;;;;;;;;5054395;28;20455;-72
2023/03/13 09:11:02;;;;;;;10.65;6.78;;;;;;;;;;5053501;28;20060;-72
2023/03/13 09:13:29;;;;;;;18.75;7.93;;;;;;;;;;5054069;28;20029;-73
2023/03/13 09:15:56;;;;;;;10.52;7.63;;;;;;;;;;5053345;28;20094;-74
2023/03/13 09:18:22;;;;;;;11.50;7.53;;;;;;;;;;5054317;28;20017;-72
2023/03/13 09:20:48;;;;;;;15.50;7.70;;;;;;;;;;5054121;28;20025;-74
2023/03/13 09:23:14;;;;;;;13.52;7.85;;;;;;;;;;5053461;28;20094;-73
2023/03/13 09:25:40;;;;;;;14.68;7.93;;;;;;;;;;5053802;28;20025;-72
2023/03/13 09:28:06;;;;;;;10.38;7.43;;;;;;;;;;5053644;28;20442;-74
2023/03/13 09:30:32;;;;;;;13.00;7.20;;;;;;;;;;5054623;28;20029;-74
2023/03/13 09:32:58;;;;;;;20.42;7.55;;;;;;;;;;5053952;28;20078;-74
2023/03/13 09:35:24;;;;;;;15.98;7.38;;;;;;;;;;5053821;28;20043;-75
2023/03/13 09:37:50;;;;;;;13.13;7.15;;;;;;;;;;5053656;28;20087;-73
2023/03/13 09:40:18;;;;;;;12.82;6.97;;;;;;;;;;5056252;28;20100;-77
2023/03/13 09:43:13;;;;;;;15.98;6.95;;;;;;;;;;5054317;28;20444;-76
2023/03/13 09:45:39;;;;;;;;;;;;;;;;;;5050956;28;20064;-75
2023/03/13 09:48:08;;;;;;;17.48;7.03;;;;;;;;;;5056806;28;19927;-81
2023/03/13 09:50:41;;;;;;;17.48;7.85;;;;;;;;;;5057542;28;20048;-79
2023/03/13 09:53:26;;;;;;;14.50;7.18;;;;;;;;;;5055699;28;20094;-76
2023/03/13 09:55:52;;;;;;;18.05;7.18;;;;;;;;;;5058836;28;20418;-75
2023/03/13 09:58:23;;;;;;;14.27;6.60;;;;;;;;;;5065288;28;20028;-72
2023/03/13 10:01:03;;;;;;;12.75;7.45;;;;;;;;;;5075555;28;20025;-76
2023/03/13 10:03:31;;;;;;;10.18;7.00;;;;;;;;;;5073948;28;20029;-73
2023/03/13 10:06:02;;;;;;;13.90;7.05;;;;;;;;;;5076973;28;20069;-75
2023/03/13 10:08:30;;;;;;;14.75;8.02;;;;;;;;;;5068858;28;20033;-77
2023/03/13 10:11:25;;;;;;;14.73;7.57;;;;;;;;;;5055494;28;20052;-76
2023/03/13 10:13:55;;;;;;;15.63;7.55;;;;;;;;;;5052441;28;20029;-75
2023/03/13 10:16:26;;;;;;;14.95;7.85;;;;;;;;;;5052847;28;20025;-73
2023/03/13 10:18:54;;;;;;;18.10;7.13;;;;;;;;;;5053061;28;20075;-73
2023/03/13 10:21:21;;;;;;;19.60;7.47;;;;;;;;;;5052686;28;20053;-75
2023/03/13 10:23:57;;;;;;;11.88;7.05;;;;;;;;;;5051576;28;20036;-73
2023/03/13 10:26:26;;;;;;;15.13;7.30;;;;;;;;;;5052205;28;20021;-72
2023/03/13 10:28:53;;;;;;;17.40;7.05;;;;;;;;;;5052560;28;20110;-73
2023/03/13 10:31:22;;;;;;;18.38;7.82;;;;;;;;;;5052327;28;20028;-74
2023/03/13 10:33:48;;;;;;;18.35;7.35;;;;;;;;;;5051951;28;20543;-74
2023/03/13 10:36:14;;;;;;;14.73;6.97;;;;;;;;;;5052700;28;20092;-75
2023/03/13 10:38:50;;;;;;;18.27;7.28;;;;;;;;;;5055224;28;20017;-75
2023/03/13 10:41:25;;;;;;;12.05;5.18;;;;;;;;;;5053061;28;20029;-74
2023/03/13 10:43:52;;;;;;;10.25;3.90;;;;;;;;;;5053935;28;20039;-75
2023/03/13 10:46:28;;;;;;;7.13;3.30;;;;;;;;;;5052721;28;20540;-75
2023/03/13 10:48:55;;;;;;;5.57;2.95;;;;;;;;;;5052130;28;20076;-73
2023/03/13 10:51:22;;;;;;;11.85;5.30;;;;;;;;;;5051905;28;20075;-76
2023/03/13 10:53:50;;;;;;;9.00;3.20;;;;;;;;;;5051807;28;20029;-70
2023/03/13 10:56:19;;;;;;;8.43;3.75;;;;;;;;;;5051994;28;20033;-71
2023/03/13 10:58:49;;;;;;;7.95;3.60;;;;;;;;;;5051859;28;20360;-71
2023/03/13 11:01:23;;;;;;;6.68;3.30;;;;;;;;;;5051778;28;20021;-72
2023/03/13 11:03:50;;;;;;;9.07;3.50;;;;;;;;;;5051455;28;20025;-71
2023/03/13 11:06:22;;;;;;;8.63;4.05;;;;;;;;;;5051671;28;20482;-72
2023/03/13 11:08:48;;;;;;;12.90;3.72;;;;;;;;;;5051343;28;20043;-73
2023/03/13 11:11:18;;;;;;;10.65;3.67;;;;;;;;;;5051571;28;20021;-72
2023/03/13 11:13:44;;;;;;;7.53;3.28;;;;;;;;;;5051107;28;20053;-72
2023/03/13 11:16:16;;;;;;;9.55;3.05;;;;;;;;;;5049618;28;20363;-72
2023/03/13 11:18:45;;;;;;;10.77;3.33;;;;;;;;;;5051402;28;20064;-72
2023/03/13 11:21:17;;;;;;;9.02;3.03;;;;;;;;;;5051659;28;20036;-70
2023/03/13 11:23:45;;;;;;;9.75;2.47;;;;;;;;;;5051464;28;20057;-72
2023/03/13 11:26:23;;;;;;;10.02;2.45;;;;;;;;;;5050962;28;20351;-70
2023/03/13 11:28:49;;;;;;;10.32;2.40;;;;;;;;;;5051160;28;20029;-71
2023/03/13 11:31:21;;;;;;;7.97;2.75;;;;;;;;;;5051105;28;20029;-72
2023/03/13 11:33:51;;;;;;;8.55;2.13;;;;;;;;;;5051481;28;20405;-72
2023/03/13 11:36:24;;;;;;;11.18;2.20;;;;;;;;;;5055519;28;20478;-71
2023/03/13 11:38:55;;;;;;;6.47;2.47;;;;;;;;;;5055718;28;20064;-71
2023/03/13 11:41:42;;;;;;;9.13;2.67;;;;;;;;;;5055678;28;20037;-71
2023/03/13 11:44:08;;;;;;;9.25;2.30;;;;;;;;;;5055092;28;20491;-71
2023/03/13 11:46:42;;;;;;;9.52;2.60;;;;;;;;;;5055402;28;20025;-72
2023/03/13 11:49:27;;;;;;;10.73;2.38;;;;;;;;;;5055018;28;20024;-73
2023/03/13 11:52:00;;;;;;;4.18;1.48;;;;;;;;;;5054918;28;20075;-70
2023/03/13 11:54:35;;;;;;;8.13;1.40;;;;;;;;;;5055213;28;20033;-73
2023/03/13 11:57:06;;;;;;;6.28;1.65;;;;;;;;;;5055137;28;20433;-72
2023/03/13 11:59:38;;;;;;;3.42;1.40;;;;;;;;;;5055053;28;20033;-71
2023/03/13 12:02:27;;;;;;;4.95;1.88;;;;;;;;;;5055015;28;20549;-71
2023/03/13 12:05:01;;;;;;;5.38;1.70;;;;;;;;;;5055209;28;20057;-72
2023/03/13 12:07:28;;;;;;;3.63;1.45;;;;;;;;;;5055360;28;20075;-72
2023/03/13 12:09:57;;;;;;;6.07;1.50;;;;;;;;;;5055240;28;20552;-74
2023/03/13 12:12:23;;;;;;;3.00;1.48;;;;;;;;;;5054433;28;20034;-72
2023/03/13 12:14:55;;;;;;;8.70;1.52;;;;;;;;;;5054879;28;20119;-72
2023/03/13 12:17:27;;;;;;;6.88;1.80;;;;;;;;;;5054615;28;20431;-71
2023/03/13 12:20:08;;;;;;;6.78;1.70;;;;;;;;;;5055086;28;20024;-72
2023/03/13 12:22:41;;;;;;;8.38;1.75;;;;;;;;;;5054632;28;20375;-72
2023/03/13 12:25:21;;;;;;;7.78;1.88;;;;;;;;;;5055105;28;20633;-72
2023/03/13 12:27:49;;;;;;;7.32;1.67;;;;;;;;;;5054543;28;20029;-72
2023/03/13 12:30:37;;;;;;;8.85;1.98;;;;;;;;;;5054328;28;20332;-71
2023/03/13 12:33:23;;;;;;;9.68;2.10;;;;;;;;;;5054667;28;20029;-74
2023/03/13 12:35:53;;;;;;;12.02;1.85;;;;;;;;;;5054686;28;20455;-73
2023/03/13 12:38:24;;;;;;;6.15;1.75;;;;;;;;;;5054531;28;20044;-72
2023/03/13 12:41:09;;;;;;;7.70;2.30;;;;;;;;;;5054541;28;20017;-71
2023/03/13 12:43:38;;;;;;;5.85;1.60;;;;;;;;;;5053965;28;20034;-72
2023/03/13 12:46:10;;;;;;;7.97;1.90;;;;;;;;;;5053260;28;20074;-71
2023/03/13 12:48:36;;;;;;;9.57;1.95;;;;;;;;;;5054681;28;20074;-72
2023/03/13 12:51:17;;;;;;;5.88;1.90;;;;;;;;;;5054345;28;20108;-72
2023/03/13 12:53:55;;;;;;;8.02;1.80;;;;;;;;;;5054325;28;20033;-73
2023/03/13 12:56:21;;;;;;;4.70;1.80;;;;;;;;;;5054195;28;20114;-73
2023/03/13 12:59:10;;;;;;;7.47;2.20;;;;;;;;;;5054430;28;20048;-72
2023/03/13 13:01:41;;;;;;;9.75;2.35;;;;;;;;;;5048282;28;20037;-72
2023/03/13 13:04:12;;;;;;;7.90;2.20;;;;;;;;;;5054318;28;20024;-73
2023/03/13 13:06:56;;;;;;;8.77;2.28;;;;;;;;;;5059940;28;20546;-74
2023/03/13 13:09:23;;;;;;;7.68;2.28;;;;;;;;;;5074991;28;20347;-73
2023/03/13 13:11:51;;;;;;;9.43;2.20;;;;;;;;;;5073152;28;20028;-74
2023/03/13 13:14:17;;;;;;;11.82;2.05;;;;;;;;;;5073767;28;20077;-72
2023/03/13 13:16:48;;;;;;;10.23;2.03;;;;;;;;;;5073205;28;20111;-72
2023/03/13 13:19:23;;;;;;;9.15;2.20;;;;;;;;;;5073360;28;20381;-74
2023/03/13 13:22:07;;;;;;;9.55;2.20;;;;;;;;;;5073192;28;20031;-72
2023/03/13 13:24:33;;;;;;;;;;;;;;;;;;5074208;28;20584;-73
2023/03/13 13:26:59;;;;;;;11.65;1.92;;;;;;;;;;5073051;28;19951;-73
2023/03/13 13:29:25;;;;;;;9.10;1.90;;;;;;;;;;5072989;28;20047;-73
2023/03/13 13:31:55;;;;;;;15.50;2.45;;;;;;;;;;5073690;28;20032;-74
2023/03/13 13:34:30;;;;;;;7.07;1.65;;;;;;;;;;5073225;28;20028;-73
2023/03/13 13:36:58;;;;;;;7.28;1.88;;;;;;;;;;5072818;28;20490;-72
2023/03/13 13:39:51;;;;;;;6.47;1.70;;;;;;;;;;5072945;28;20033;-73
2023/03/13 13:42:29;;;;;;;5.95;1.70;;;;;;;;;;5072049;28;20033;-73
2023/03/13 13:45:02;;;;;;;6.88;1.52;;;;;;;;;;5072994;28;20028;-73
2023/03/13 13:47:30;;;;;;;9.27;2.00;;;;;;;;;;5072187;28;20486;-74
2023/03/13 13:49:57;;;;;;;7.93;1.80;;;;;;;;;;5073200;28;20028;-72
2023/03/13 13:52:32;;;;;;;6.25;1.83;;;;;;;;;;5073300;28;20119;-72
2023/03/13 13:54:58;;;;;;;7.63;1.77;;;;;;;;;;5073468;28;20028;-72
2023/03/13 13:57:30;;;;;;;7.38;2.05;;;;;;;;;;5072474;28;20052;-74
2023/03/13 14:00:01;;;;;;;6.70;1.80;;;;;;;;;;5073331;28;20020;-71
2023/03/13 14:02:32;;;;;;;6.40;2.08;;;;;;;;;;5072379;28;20020;-72
2023/03/13 14:05:03;;;;;;;9.02;1.75;;;;;;;;;;5073132;28;20101;-74
2023/03/13 14:07:32;;;;;;;7.57;2.00;;;;;;;;;;5072612;28;20112;-72
2023/03/13 14:10:01;;;;;;;8.23;2.42;;;;;;;;;;5072592;28;20027;-72
2023/03/13 14:12:27;;;;;;;12.00;2.22;;;;;;;;;;5072846;28;20048;-74
2023/03/13 14:15:05;;;;;;;6.80;2.13;;;;;;;;;;5073505;28;20025;-74
2023/03/13 14:17:37;;;;;;;5.13;1.67;;;;;;;;;;5072625;28;20048;-74
2023/03/13 14:20:05;;;;;;;11.90;1.73;;;;;;;;;;5072146;28;20024;-73
2023/03/13 14:22:44;;;;;;;8.05;1.60;;;;;;;;;;5071972;28;20481;-73
2023/03/13 14:25:10;;;;;;;10.65;2.17;;;;;;;;;;5072570;28;20024;-72
2023/03/13 14:27:42;;;;;;;6.35;1.55;;;;;;;;;;5072504;28;20025;-73
2023/03/13 14:30:08;;;;;;;6.35;1.85;;;;;;;;;;5071903;28;20020;-73
2023/03/13 14:32:34;;;;;;;5.93;1.80;;;;;;;;;;5071745;28;20393;-73